Time;durP1;ratioP1;P1;durP2;ratioP2;P2;SDS_P1;SDS_P2;PMS_P1;PMS_P2;Temp;Humidity;BMP_temperature;BMP_pressure;BME280_temperature;BME280_humidity;BME280_pressure;Samples;Min_cycle;Max_cycle;Signal;HPM_P1;HPM_P2
2021/07/10 00:01:04;;;;;;;9.85;7.55;;;16.60;99.90;;;;;;4861846;29;20053;-85
2021/07/10 00:03:30;;;;;;;9.98;8.00;;;16.60;99.90;;;;;;4861278;29;20111;-86
2021/07/10 00:05:55;;;;;;;10.30;7.88;;;16.60;99.90;;;;;;4859690;29;20056;-86
2021/07/10 00:08:20;;;;;;;9.60;7.35;;;16.60;99.90;;;;;;4858615;29;20342;-85
2021/07/10 00:10:46;;;;;;;10.55;8.07;;;16.60;99.90;;;;;;4865320;29;20057;-86
2021/07/10 00:13:12;;;;;;;10.90;8.20;;;16.70;99.90;;;;;;4855261;29;20182;-87
2021/07/10 00:15:37;;;;;;;12.80;8.82;;;16.60;99.90;;;;;;4872647;29;20045;-86
2021/07/10 00:18:03;;;;;;;14.23;9.35;;;16.60;99.90;;;;;;4854461;29;20052;-85
2021/07/10 00:20:28;;;;;;;11.63;8.90;;;16.60;99.90;;;;;;4858959;29;20056;-85
2021/07/10 00:22:54;;;;;;;14.68;8.77;;;16.60;99.90;;;;;;4852452;29;20106;-86
2021/07/10 00:25:20;;;;;;;13.10;9.50;;;16.70;99.90;;;;;;4852757;29;20046;-86
2021/07/10 00:27:47;;;;;;;11.82;9.40;;;16.70;99.90;;;;;;4857496;29;20098;-85
2021/07/10 00:30:14;;;;;;;18.92;9.02;;;16.80;99.90;;;;;;4858650;29;20160;-86
2021/07/10 00:32:40;;;;;;;15.35;9.73;;;16.80;99.90;;;;;;4855288;29;20050;-85
2021/07/10 00:35:07;;;;;;;14.05;10.60;;;16.80;99.90;;;;;;4864419;29;20294;-86
2021/07/10 00:37:32;;;;;;;14.90;10.70;;;16.80;99.90;;;;;;4856506;29;20056;-85
2021/07/10 00:39:58;;;;;;;16.13;11.38;;;16.80;99.90;;;;;;4853169;29;20038;-85
2021/07/10 00:42:23;;;;;;;18.45;11.55;;;16.80;99.90;;;;;;4852417;29;20046;-86
2021/07/10 00:44:49;;;;;;;26.10;12.07;;;16.90;99.90;;;;;;4860406;29;20170;-85
2021/07/10 00:47:17;;;;;;;23.27;12.48;;;16.80;99.90;;;;;;4855864;29;20045;-85
2021/07/10 00:49:43;;;;;;;19.60;12.65;;;16.90;99.90;;;;;;4858498;29;20045;-86
2021/07/10 00:52:09;;;;;;;18.95;11.35;;;16.80;99.90;;;;;;4859334;29;20599;-86
2021/07/10 00:54:36;;;;;;;17.80;12.63;;;16.80;99.90;;;;;;4872607;29;20042;-86
2021/07/10 00:57:03;;;;;;;24.10;14.07;;;16.80;99.90;;;;;;4855261;29;20137;-85
2021/07/10 00:59:29;;;;;;;20.17;12.30;;;16.80;99.90;;;;;;4870920;29;20385;-85
2021/07/10 01:01:54;;;;;;;23.08;12.73;;;16.80;99.90;;;;;;4855246;29;20095;-84
2021/07/10 01:04:21;;;;;;;15.68;12.10;;;16.80;99.90;;;;;;4870328;29;20048;-85
2021/07/10 01:06:47;;;;;;;17.42;12.02;;;16.70;99.90;;;;;;4854174;29;20098;-86
2021/07/10 01:09:16;;;;;;;20.75;12.50;;;16.80;99.90;;;;;;4871296;29;20061;-86
2021/07/10 01:11:43;;;;;;;18.45;12.15;;;16.80;99.90;;;;;;4863010;29;20283;-86
2021/07/10 01:14:09;;;;;;;15.90;11.27;;;16.80;99.90;;;;;;4855302;29;20073;-86
2021/07/10 01:16:34;;;;;;;24.67;11.23;;;16.80;99.90;;;;;;4858798;29;20084;-87
2021/07/10 01:19:00;;;;;;;16.00;11.15;;;16.70;99.90;;;;;;4863922;29;20056;-86
2021/07/10 01:21:26;;;;;;;21.98;11.40;;;16.80;99.90;;;;;;4855981;29;20045;-87
2021/07/10 01:23:51;;;;;;;16.48;11.13;;;16.70;99.90;;;;;;4855379;29;20038;-86
2021/07/10 01:26:18;;;;;;;17.25;11.27;;;16.80;99.90;;;;;;4873363;29;20065;-87
2021/07/10 01:28:44;;;;;;;20.10;11.70;;;16.80;99.90;;;;;;4857794;29;20049;-87
2021/07/10 01:31:10;;;;;;;18.02;10.57;;;16.80;99.90;;;;;;4861615;29;20041;-87
2021/07/10 01:33:36;;;;;;;15.70;10.68;;;16.80;99.90;;;;;;4857624;29;20045;-87
2021/07/10 01:36:01;;;;;;;24.88;11.82;;;16.70;99.90;;;;;;4859177;29;20738;-87
2021/07/10 01:38:27;;;;;;;19.85;12.23;;;16.70;99.90;;;;;;4853581;29;20102;-87
2021/07/10 01:40:52;;;;;;;20.33;11.30;;;16.70;99.90;;;;;;4860821;29;20113;-87
2021/07/10 01:43:18;;;;;;;19.58;10.68;;;16.70;99.90;;;;;;4860978;29;20092;-87
2021/07/10 01:45:43;;;;;;;17.25;10.77;;;16.70;99.90;;;;;;4859867;29;20072;-87
2021/07/10 01:48:10;;;;;;;18.23;12.35;;;16.80;99.90;;;;;;4854026;29;20110;-87
2021/07/10 01:50:37;;;;;;;23.60;12.65;;;16.80;99.90;;;;;;4858630;29;20048;-87
2021/07/10 01:53:03;;;;;;;22.83;11.52;;;16.90;99.90;;;;;;4856722;29;20042;-87
2021/07/10 01:55:29;;;;;;;17.48;11.85;;;16.80;99.90;;;;;;4855997;29;20453;-87
2021/07/10 01:57:55;;;;;;;19.33;11.57;;;16.90;99.90;;;;;;4861491;29;20046;-87
2021/07/10 02:00:22;;;;;;;18.02;11.27;;;16.90;99.90;;;;;;4851010;29;20049;-87
2021/07/10 02:02:48;;;;;;;17.25;11.20;;;16.90;99.90;;;;;;4860958;29;20077;-87
2021/07/10 02:05:17;;;;;;;16.73;11.52;;;16.90;99.90;;;;;;4860399;29;20794;-87
2021/07/10 02:07:43;;;;;;;14.43;9.85;;;16.90;99.90;;;;;;4856929;29;20038;-88
2021/07/10 02:10:12;;;;;;;13.02;9.98;;;16.90;99.90;;;;;;4862741;29;20341;-87
2021/07/10 02:12:39;;;;;;;15.73;9.07;;;16.90;99.90;;;;;;4860005;29;20552;-87
2021/07/10 02:15:06;;;;;;;12.73;9.02;;;16.90;99.90;;;;;;4858333;29;20041;-86
2021/07/10 02:17:32;;;;;;;11.55;8.38;;;17.00;99.90;;;;;;4870548;29;20041;-87
2021/07/10 02:19:57;;;;;;;11.52;7.78;;;17.00;99.90;;;;;;4856053;29;20080;-86
2021/07/10 02:22:23;;;;;;;13.30;8.63;;;17.00;99.90;;;;;;4854337;29;20045;-87
2021/07/10 02:24:48;;;;;;;13.57;7.93;;;17.00;99.90;;;;;;4862405;29;20065;-87
2021/07/10 02:27:14;;;;;;;9.45;7.07;;;17.10;99.90;;;;;;4855729;29;20082;-86
2021/07/10 02:29:39;;;;;;;11.10;7.47;;;17.10;99.90;;;;;;4853454;29;20113;-87
2021/07/10 02:32:06;;;;;;;8.65;7.05;;;17.10;99.90;;;;;;4860189;29;20136;-88
2021/07/10 02:34:31;;;;;;;10.15;6.75;;;17.10;99.90;;;;;;4856243;29;20043;-87
2021/07/10 02:36:57;;;;;;;17.73;7.38;;;17.00;99.90;;;;;;4857608;29;20160;-87
2021/07/10 02:39:22;;;;;;;13.30;6.55;;;17.00;99.90;;;;;;4874570;29;20047;-87
2021/07/10 02:41:48;;;;;;;10.20;6.82;;;17.00;99.90;;;;;;4860307;29;20053;-88
2021/07/10 02:44:14;;;;;;;9.63;6.30;;;16.90;99.90;;;;;;4855882;29;20061;-88
2021/07/10 02:46:39;;;;;;;10.60;6.25;;;16.90;99.90;;;;;;4859374;29;20117;-86
2021/07/10 02:49:05;;;;;;;12.65;6.68;;;16.90;99.90;;;;;;4872878;29;20133;-87
2021/07/10 02:51:31;;;;;;;7.35;6.60;;;16.90;99.90;;;;;;4862515;29;20105;-87
2021/07/10 02:53:56;;;;;;;13.85;6.53;;;16.90;99.90;;;;;;4849786;29;20038;-87
2021/07/10 02:56:23;;;;;;;8.88;5.60;;;16.90;99.90;;;;;;4852054;29;20060;-88
2021/07/10 02:58:49;;;;;;;10.43;7.72;;;16.80;99.90;;;;;;4860711;29;20041;-87
2021/07/10 03:01:15;;;;;;;10.00;7.22;;;16.80;99.90;;;;;;4856428;29;20064;-86
2021/07/10 03:03:40;;;;;;;18.38;7.13;;;16.70;99.90;;;;;;4855487;29;20279;-87
2021/07/10 03:06:06;;;;;;;9.15;6.85;;;16.70;99.90;;;;;;4859105;29;20038;-86
2021/07/10 03:08:31;;;;;;;12.63;6.28;;;16.70;99.90;;;;;;4858415;29;20042;-86
2021/07/10 03:10:57;;;;;;;13.27;7.05;;;16.60;99.90;;;;;;4870377;29;20044;-86
2021/07/10 03:13:22;;;;;;;15.27;6.65;;;16.60;99.90;;;;;;4853107;29;20041;-87
2021/07/10 03:15:49;;;;;;;10.35;7.38;;;16.60;99.90;;;;;;4855530;29;20049;-87
2021/07/10 03:18:14;;;;;;;9.70;6.53;;;16.60;99.90;;;;;;4851823;29;20180;-87
2021/07/10 03:20:40;;;;;;;13.57;6.40;;;16.60;99.90;;;;;;4853820;29;20053;-86
2021/07/10 03:23:06;;;;;;;13.48;6.68;;;16.50;99.90;;;;;;4860102;29;20409;-87
2021/07/10 03:25:31;;;;;;;9.05;6.70;;;16.50;99.90;;;;;;4853204;29;20044;-87
2021/07/10 03:27:57;;;;;;;10.85;6.78;;;16.50;99.90;;;;;;4854454;29;20060;-86
2021/07/10 03:30:24;;;;;;;8.02;6.60;;;16.50;99.90;;;;;;4857223;29;20041;-86
2021/07/10 03:32:50;;;;;;;9.57;6.10;;;16.50;99.90;;;;;;4861344;29;20229;-86
2021/07/10 03:35:17;;;;;;;12.85;6.90;;;16.50;99.90;;;;;;4868986;29;20124;-87
2021/07/10 03:37:43;;;;;;;11.45;6.95;;;16.40;99.90;;;;;;4856713;29;20046;-87
2021/07/10 03:40:12;;;;;;;10.73;6.75;;;16.50;99.90;;;;;;4860628;29;20052;-85
2021/07/10 03:42:39;;;;;;;8.70;5.95;;;16.50;99.90;;;;;;4868461;29;20045;-86
2021/07/10 03:45:06;;;;;;;10.00;6.38;;;16.40;99.90;;;;;;4856188;29;20056;-87
2021/07/10 03:47:32;;;;;;;8.52;6.75;;;16.40;99.90;;;;;;4854190;29;20042;-86
2021/07/10 03:49:57;;;;;;;12.00;6.68;;;16.50;99.90;;;;;;4855875;29;20041;-86
2021/07/10 03:52:23;;;;;;;9.80;6.07;;;16.50;99.90;;;;;;4864451;29;20052;-86
2021/07/10 03:54:49;;;;;;;9.88;6.78;;;16.40;99.90;;;;;;4857493;29;20454;-87
2021/07/10 03:57:14;;;;;;;10.52;6.07;;;16.40;99.90;;;;;;4853944;29;20148;-86
2021/07/10 03:59:40;;;;;;;9.43;5.97;;;16.40;99.90;;;;;;4860789;29;20053;-87
2021/07/10 04:02:05;;;;;;;9.15;6.50;;;16.40;99.90;;;;;;4876923;29;20128;-86
2021/07/10 04:04:31;;;;;;;11.57;5.63;;;16.40;99.90;;;;;;4875791;29;20060;-85
2021/07/10 04:06:56;;;;;;;9.30;6.28;;;16.40;99.90;;;;;;4855218;29;20109;-86
2021/07/10 04:09:22;;;;;;;10.88;6.60;;;16.40;99.90;;;;;;4869890;29;20045;-86
2021/07/10 04:11:48;;;;;;;10.57;5.82;;;16.50;99.90;;;;;;4864034;29;20347;-86
2021/07/10 04:14:13;;;;;;;14.38;5.38;;;16.50;99.90;;;;;;4861658;29;20067;-86
2021/07/10 04:16:39;;;;;;;6.75;5.68;;;16.50;99.90;;;;;;4853295;29;20414;-86
2021/07/10 04:19:04;;;;;;;13.07;5.93;;;16.40;99.90;;;;;;4861309;29;20076;-85
2021/07/10 04:21:30;;;;;;;8.32;5.22;;;16.40;99.90;;;;;;4857932;29;20049;-86
2021/07/10 04:23:55;;;;;;;10.55;6.32;;;16.50;99.90;;;;;;4863702;29;20033;-84
2021/07/10 04:26:21;;;;;;;7.45;5.40;;;16.50;99.90;;;;;;4872527;29;20081;-86
2021/07/10 04:28:47;;;;;;;9.05;5.38;;;16.40;99.90;;;;;;4858397;29;20041;-86
2021/07/10 04:31:12;;;;;;;18.13;6.18;;;16.40;99.90;;;;;;4863872;29;20046;-86
2021/07/10 04:33:38;;;;;;;12.40;6.50;;;16.40;99.90;;;;;;4855473;29;20037;-86
2021/07/10 04:36:04;;;;;;;12.27;6.78;;;16.40;99.90;;;;;;4874293;29;20041;-86
2021/07/10 04:38:29;;;;;;;10.13;6.65;;;16.40;99.90;;;;;;4874637;29;20073;-85
2021/07/10 04:40:55;;;;;;;10.68;5.97;;;16.40;99.90;;;;;;4864988;29;20045;-86
2021/07/10 04:43:20;;;;;;;9.80;6.10;;;16.40;99.90;;;;;;4855206;29;20052;-87
2021/07/10 04:45:46;;;;;;;11.98;5.93;;;16.40;99.90;;;;;;4868706;29;20292;-86
2021/07/10 04:48:11;;;;;;;8.88;5.57;;;16.40;99.90;;;;;;4854698;29;20041;-86
2021/07/10 04:50:37;;;;;;;11.60;5.80;;;16.40;99.90;;;;;;4854191;29;20317;-87
2021/07/10 04:53:03;;;;;;;9.15;6.45;;;16.40;99.90;;;;;;4860205;29;20136;-87
2021/07/10 04:55:29;;;;;;;12.90;7.20;;;16.40;99.90;;;;;;4863841;29;20049;-87
2021/07/10 04:57:54;;;;;;;7.35;5.47;;;16.30;99.90;;;;;;4855339;29;20053;-86
2021/07/10 05:00:20;;;;;;;13.48;5.93;;;16.30;99.90;;;;;;4853957;29;20109;-86
2021/07/10 05:02:46;;;;;;;11.63;6.07;;;16.40;99.90;;;;;;4864380;29;20413;-87
2021/07/10 05:05:12;;;;;;;12.65;5.57;;;16.30;99.90;;;;;;4858656;29;20090;-86
2021/07/10 05:07:37;;;;;;;9.60;6.30;;;16.40;99.90;;;;;;4862524;29;20048;-86
2021/07/10 05:10:05;;;;;;;10.35;6.85;;;16.40;99.90;;;;;;4864238;29;20045;-86
2021/07/10 05:12:31;;;;;;;10.55;5.20;;;16.40;99.90;;;;;;4866603;29;20141;-86
2021/07/10 05:14:57;;;;;;;12.57;5.72;;;16.40;99.90;;;;;;4877505;29;20136;-86
2021/07/10 05:17:23;;;;;;;16.45;5.20;;;16.50;99.90;;;;;;4864010;29;20093;-86
2021/07/10 05:19:48;;;;;;;14.45;6.18;;;16.50;99.90;;;;;;4867519;29;20049;-87
2021/07/10 05:22:14;;;;;;;9.63;5.07;;;16.60;99.90;;;;;;4858375;29;20149;-87
2021/07/10 05:24:40;;;;;;;12.88;5.85;;;16.60;99.90;;;;;;4864224;29;20049;-86
2021/07/10 05:27:06;;;;;;;8.45;5.95;;;16.70;99.90;;;;;;4871290;29;20045;-87
2021/07/10 05:29:32;;;;;;;12.98;5.90;;;16.70;99.90;;;;;;4849795;29;20052;-86
2021/07/10 05:31:58;;;;;;;10.07;5.28;;;16.80;99.90;;;;;;4862023;29;20580;-87
2021/07/10 05:34:23;;;;;;;11.15;5.63;;;16.80;99.90;;;;;;4857887;29;20052;-87
2021/07/10 05:36:49;;;;;;;6.85;5.18;;;16.90;99.90;;;;;;4859345;29;20061;-87
2021/07/10 05:39:14;;;;;;;9.57;4.78;;;16.90;99.90;;;;;;4854529;29;20041;-87
2021/07/10 05:41:41;;;;;;;12.55;5.75;;;16.80;99.90;;;;;;4867469;29;20410;-87
2021/07/10 05:44:07;;;;;;;10.73;5.22;;;16.90;99.90;;;;;;4864203;29;20313;-87
2021/07/10 05:46:32;;;;;;;5.00;4.45;;;16.90;99.90;;;;;;4856664;29;20033;-87
2021/07/10 05:48:58;;;;;;;8.30;5.03;;;17.00;99.90;;;;;;4855723;29;20041;-88
2021/07/10 05:51:23;;;;;;;8.40;4.90;;;17.10;99.90;;;;;;4871802;29;20420;-87
2021/07/10 05:53:49;;;;;;;6.50;5.20;;;17.20;99.90;;;;;;4854809;29;20046;-87
2021/07/10 05:56:14;;;;;;;11.75;5.50;;;17.30;99.90;;;;;;4853270;29;20124;-88
2021/07/10 05:58:40;;;;;;;11.70;5.25;;;17.40;99.90;;;;;;4870616;29;20046;-88
2021/07/10 06:01:05;;;;;;;11.57;5.05;;;17.40;99.70;;;;;;4859606;29;20101;-87
2021/07/10 06:03:31;;;;;;;11.15;5.20;;;17.50;99.80;;;;;;4857359;29;20314;-86
2021/07/10 06:05:56;;;;;;;11.60;6.40;;;17.50;99.60;;;;;;4851565;29;20041;-87
2021/07/10 06:08:22;;;;;;;15.68;5.70;;;17.50;99.50;;;;;;4863648;29;20068;-87
2021/07/10 06:10:47;;;;;;;10.80;4.82;;;17.60;99.70;;;;;;4862975;29;20525;-87
2021/07/10 06:13:13;;;;;;;10.82;5.57;;;17.60;99.60;;;;;;4877534;29;20041;-87
2021/07/10 06:15:39;;;;;;;8.38;5.18;;;17.70;99.50;;;;;;4850714;29;20042;-87
2021/07/10 06:18:04;;;;;;;8.07;5.15;;;17.70;99.50;;;;;;4872815;29;20041;-88
2021/07/10 06:20:30;;;;;;;10.50;5.40;;;17.80;99.50;;;;;;4857454;29;20097;-87
2021/07/10 06:22:58;;;;;;;13.90;6.18;;;17.80;99.30;;;;;;4855481;29;20038;-87
2021/07/10 06:25:23;;;;;;;11.60;5.70;;;17.90;99.30;;;;;;4864238;29;20292;-87
2021/07/10 06:27:49;;;;;;;11.75;5.15;;;17.90;99.20;;;;;;4857073;29;20037;-87
2021/07/10 06:30:16;;;;;;;8.23;4.82;;;18.10;99.20;;;;;;4855063;29;20052;-87
2021/07/10 06:32:43;;;;;;;7.53;5.32;;;18.10;98.90;;;;;;4856752;29;20075;-85
2021/07/10 06:35:09;;;;;;;7.80;5.35;;;18.10;98.90;;;;;;4877204;29;20034;-85
2021/07/10 06:37:35;;;;;;;7.15;4.88;;;18.20;98.50;;;;;;4852491;29;20118;-85
2021/07/10 06:40:03;;;;;;;6.45;4.82;;;18.30;98.40;;;;;;4869872;29;20053;-85
2021/07/10 06:42:28;;;;;;;10.27;5.07;;;18.40;98.60;;;;;;4857410;29;20423;-86
2021/07/10 06:44:54;;;;;;;10.98;5.38;;;18.40;98.20;;;;;;4873575;29;20045;-85
2021/07/10 06:47:21;;;;;;;7.93;5.20;;;18.60;98.20;;;;;;4857241;29;20037;-85
2021/07/10 06:49:46;;;;;;;11.95;5.03;;;18.60;97.90;;;;;;4863103;29;20429;-84
2021/07/10 06:52:12;;;;;;;9.90;5.32;;;18.70;98.00;;;;;;4863945;29;20128;-85
2021/07/10 06:54:38;;;;;;;7.22;4.63;;;18.80;98.40;;;;;;4863695;29;20416;-85
2021/07/10 06:57:03;;;;;;;5.90;5.00;;;18.90;98.10;;;;;;4864233;29;20045;-85
2021/07/10 06:59:29;;;;;;;23.55;6.72;;;19.00;98.20;;;;;;4864702;29;20122;-85
2021/07/10 07:01:54;;;;;;;13.40;5.38;;;19.20;97.80;;;;;;4864494;29;20049;-85
2021/07/10 07:04:20;;;;;;;12.63;5.63;;;19.30;97.30;;;;;;4864035;29;20337;-86
2021/07/10 07:06:46;;;;;;;8.18;4.90;;;19.40;97.30;;;;;;4864533;29;20045;-85
2021/07/10 07:09:12;;;;;;;11.90;6.10;;;19.60;96.90;;;;;;4863528;29;20267;-85
2021/07/10 07:11:38;;;;;;;11.18;5.90;;;19.60;96.80;;;;;;4863786;29;20060;-85
2021/07/10 07:14:05;;;;;;;7.45;5.15;;;19.70;96.20;;;;;;4878979;29;20041;-85
2021/07/10 07:16:31;;;;;;;9.07;5.63;;;19.70;96.00;;;;;;4864339;29;20230;-85
2021/07/10 07:18:56;;;;;;;8.10;4.45;;;19.70;96.20;;;;;;4864102;29;20465;-85
2021/07/10 07:21:22;;;;;;;5.70;4.80;;;19.70;96.10;;;;;;4864651;29;20119;-85
2021/07/10 07:23:47;;;;;;;8.63;5.50;;;19.70;96.30;;;;;;4864273;29;20037;-84
2021/07/10 07:26:13;;;;;;;10.70;5.40;;;19.70;95.90;;;;;;4863456;29;20382;-86
2021/07/10 07:28:39;;;;;;;10.20;5.57;;;19.80;95.90;;;;;;4863997;29;20041;-84
2021/07/10 07:31:05;;;;;;;10.95;5.10;;;19.90;96.30;;;;;;4863159;29;20048;-85
2021/07/10 07:33:30;;;;;;;8.45;5.07;;;20.00;95.80;;;;;;4863500;29;20084;-85
2021/07/10 07:35:56;;;;;;;7.57;4.82;;;20.10;96.00;;;;;;4864134;29;20370;-85
2021/07/10 07:38:22;;;;;;;6.50;5.13;;;20.30;96.20;;;;;;4864181;29;20329;-85
2021/07/10 07:40:48;;;;;;;6.43;5.45;;;20.40;95.80;;;;;;4864139;29;20045;-84
2021/07/10 07:43:14;;;;;;;12.70;5.25;;;20.50;96.10;;;;;;4862883;29;20148;-84
2021/07/10 07:45:39;;;;;;;7.72;4.78;;;20.60;95.50;;;;;;4863401;29;20132;-85
2021/07/10 07:48:05;;;;;;;13.07;5.18;;;20.70;95.00;;;;;;4863237;29;20124;-85
2021/07/10 07:50:31;;;;;;;10.10;5.03;;;20.80;95.50;;;;;;4878696;29;20060;-85
2021/07/10 07:52:57;;;;;;;8.52;5.55;;;20.80;94.90;;;;;;4863829;29;20049;-85
2021/07/10 07:55:23;;;;;;;12.20;6.40;;;20.90;93.80;;;;;;4864044;29;20436;-85
2021/07/10 07:57:48;;;;;;;11.13;5.00;;;21.00;93.70;;;;;;4877949;29;20060;-85
2021/07/10 08:00:19;;;;;;;9.48;5.38;;;21.00;94.10;;;;;;4863357;29;20052;-85
2021/07/10 08:02:46;;;;;;;9.95;5.30;;;21.10;94.40;;;;;;4863504;29;20037;-85
2021/07/10 08:05:12;;;;;;;4.93;4.43;;;21.20;93.90;;;;;;4878918;29;20132;-84
2021/07/10 08:07:38;;;;;;;10.00;5.60;;;21.30;93.80;;;;;;4863863;29;20042;-85
2021/07/10 08:10:06;;;;;;;8.93;5.00;;;21.40;93.40;;;;;;4863078;29;20053;-85
2021/07/10 08:12:32;;;;;;;9.27;5.30;;;21.50;93.30;;;;;;4878350;29;20412;-85
2021/07/10 08:14:58;;;;;;;10.07;5.07;;;21.50;94.30;;;;;;4863631;29;20045;-85
2021/07/10 08:17:23;;;;;;;7.43;4.90;;;21.70;93.40;;;;;;4863780;29;20033;-85
2021/07/10 08:19:49;;;;;;;7.10;5.47;;;21.80;93.20;;;;;;4862759;29;20053;-85
2021/07/10 08:22:15;;;;;;;10.10;5.47;;;21.80;93.40;;;;;;4863714;29;20045;-85
2021/07/10 08:24:40;;;;;;;10.10;6.25;;;22.00;93.50;;;;;;4863458;29;20269;-84
2021/07/10 08:27:06;;;;;;;7.75;5.63;;;22.00;92.00;;;;;;4863116;29;20048;-85
2021/07/10 08:29:32;;;;;;;9.18;5.95;;;22.10;92.80;;;;;;4863535;29;20116;-84
2021/07/10 08:31:58;;;;;;;10.13;6.32;;;22.20;92.70;;;;;;4878162;29;20117;-85
2021/07/10 08:34:23;;;;;;;8.38;5.63;;;22.30;92.20;;;;;;4862942;29;20049;-85
2021/07/10 08:36:49;;;;;;;9.50;6.03;;;22.40;92.70;;;;;;4863107;29;20057;-85
2021/07/10 08:39:14;;;;;;;10.95;6.13;;;22.50;92.20;;;;;;4862780;29;20081;-85
2021/07/10 08:41:40;;;;;;;6.45;5.72;;;22.70;91.20;;;;;;4863068;29;20049;-85
2021/07/10 08:44:06;;;;;;;10.73;6.40;;;22.70;91.10;;;;;;4862840;29;20077;-85
2021/07/10 08:46:32;;;;;;;7.70;6.15;;;22.70;91.30;;;;;;4862462;29;20096;-85
2021/07/10 08:48:57;;;;;;;7.35;5.22;;;22.70;90.80;;;;;;4863297;29;20041;-84
2021/07/10 08:51:23;;;;;;;7.25;5.82;;;22.70;91.50;;;;;;4863590;29;20045;-85
2021/07/10 08:53:49;;;;;;;8.52;5.65;;;22.90;90.50;;;;;;4879599;29;20132;-85
2021/07/10 08:56:15;;;;;;;8.80;5.10;;;23.00;91.20;;;;;;4867291;29;20049;-85
2021/07/10 08:58:41;;;;;;;9.30;5.75;;;23.20;90.40;;;;;;4865254;29;20116;-85
2021/07/10 09:01:10;;;;;;;8.15;5.53;;;23.30;91.60;;;;;;4881352;29;20433;-85
2021/07/10 09:03:36;;;;;;;9.80;7.10;;;23.50;90.30;;;;;;4866520;29;20029;-85
2021/07/10 09:06:01;;;;;;;7.28;6.43;;;23.50;90.30;;;;;;4866780;29;20629;-85
2021/07/10 09:08:29;;;;;;;9.32;5.72;;;23.60;89.60;;;;;;4866521;29;20408;-86
2021/07/10 09:10:56;;;;;;;7.22;6.00;;;23.70;89.10;;;;;;4881168;29;20215;-86
2021/07/10 09:13:40;;;;;;;9.68;6.07;;;23.60;89.90;;;;;;4865717;29;20053;-85
2021/07/10 09:16:07;;;;;;;11.35;6.47;;;23.70;89.70;;;;;;4881168;29;20094;-86
2021/07/10 09:18:45;;;;;;;10.38;6.20;;;23.90;88.20;;;;;;4866451;29;20048;-86
2021/07/10 09:21:13;;;;;;;6.63;5.57;;;24.00;87.50;;;;;;4866158;29;20041;-85
2021/07/10 09:23:42;;;;;;;7.30;6.32;;;24.00;87.40;;;;;;4866159;29;20039;-86
2021/07/10 09:26:17;;;;;;;9.10;5.88;;;24.10;87.80;;;;;;4880549;29;20110;-85
2021/07/10 09:28:43;;;;;;;8.10;6.30;;;24.10;85.40;;;;;;4865971;29;20065;-85
2021/07/10 09:31:30;;;;;;;6.85;5.80;;;24.10;88.20;;;;;;4880395;29;20045;-85
2021/07/10 09:34:05;;;;;;;7.20;5.57;;;24.30;85.40;;;;;;4865842;29;20045;-85
2021/07/10 09:36:32;;;;;;;9.85;6.30;;;24.30;84.90;;;;;;4865821;29;20116;-85
2021/07/10 09:38:57;;;;;;;13.30;6.07;;;24.30;87.00;;;;;;4865978;29;20133;-85
2021/07/10 09:41:31;;;;;;;7.90;5.63;;;24.20;84.30;;;;;;4865197;29;20132;-85
2021/07/10 09:44:14;;;;;;;5.72;5.22;;;24.10;85.70;;;;;;4880652;29;20049;-86
2021/07/10 09:46:42;;;;;;;9.63;5.95;;;24.10;86.70;;;;;;4864962;29;20398;-85
2021/07/10 09:49:23;;;;;;;7.90;5.97;;;24.00;86.50;;;;;;4880444;29;20129;-86
2021/07/10 09:52:04;;;;;;;6.22;5.53;;;24.10;87.40;;;;;;4865393;29;20037;-85
2021/07/10 09:54:35;;;;;;;10.05;5.70;;;24.30;87.00;;;;;;4865652;29;20128;-85
2021/07/10 09:57:06;;;;;;;7.38;6.05;;;24.30;85.50;;;;;;4865593;29;20041;-86
2021/07/10 09:59:37;;;;;;;13.68;6.50;;;24.30;86.00;;;;;;4865180;29;20301;-85
2021/07/10 10:02:09;;;;;;;8.82;5.95;;;24.30;85.90;;;;;;4865835;29;20533;-85
2021/07/10 10:04:35;;;;;;;14.20;5.55;;;24.30;87.10;;;;;;4864955;29;20033;-84
2021/07/10 10:07:02;;;;;;;6.07;5.13;;;24.40;84.40;;;;;;4865412;29;20049;-85
2021/07/10 10:09:30;;;;;;;10.40;4.82;;;24.50;83.20;;;;;;4865161;29;20038;-85
2021/07/10 10:12:02;;;;;;;6.32;4.60;;;24.70;82.60;;;;;;4879932;29;20056;-85
2021/07/10 10:14:30;;;;;;;5.47;4.82;;;25.00;82.80;;;;;;4879838;29;20045;-85
2021/07/10 10:16:56;;;;;;;5.88;4.43;;;25.20;84.60;;;;;;4865143;29;20049;-85
2021/07/10 10:19:24;;;;;;;8.00;4.80;;;25.60;80.80;;;;;;4865316;29;20041;-84
2021/07/10 10:21:52;;;;;;;7.93;5.25;;;25.90;83.60;;;;;;4865117;29;20113;-84
2021/07/10 10:24:19;;;;;;;7.28;5.45;;;26.10;81.00;;;;;;4865038;29;20453;-84
2021/07/10 10:26:46;;;;;;;5.93;4.90;;;26.20;78.10;;;;;;4864018;29;20543;-84
2021/07/10 10:29:13;;;;;;;5.78;5.18;;;26.20;78.80;;;;;;4879724;29;20200;-84
2021/07/10 10:31:41;;;;;;;5.47;4.68;;;26.20;80.60;;;;;;4864845;29;20041;-84
2021/07/10 10:34:07;;;;;;;6.57;4.80;;;26.20;75.60;;;;;;4865305;29;20050;-85
2021/07/10 10:36:36;;;;;;;6.05;5.07;;;26.10;76.20;;;;;;4879470;29;20313;-85
2021/07/10 10:39:05;;;;;;;4.95;4.45;;;26.00;76.50;;;;;;4863889;29;20144;-84
2021/07/10 10:41:31;;;;;;;6.68;4.97;;;26.10;79.00;;;;;;4864591;29;20064;-85
2021/07/10 10:43:57;;;;;;;9.40;4.68;;;26.10;78.50;;;;;;4864743;29;20321;-84
2021/07/10 10:46:23;;;;;;;6.05;4.78;;;26.10;79.40;;;;;;4864059;29;20033;-83
2021/07/10 10:48:51;;;;;;;6.47;5.05;;;26.00;78.20;;;;;;4864397;29;20029;-84
2021/07/10 10:51:34;;;;;;;6.75;4.25;;;26.00;77.20;;;;;;4863883;29;20046;-84
2021/07/10 10:54:18;;;;;;;6.28;5.00;;;26.10;78.80;;;;;;4879248;29;20041;-83
2021/07/10 10:56:45;;;;;;;9.85;4.22;;;26.30;80.30;;;;;;4863424;29;20037;-83
2021/07/10 10:59:34;;;;;;;5.90;4.22;;;26.60;77.60;;;;;;4863889;29;20069;-84
2021/07/10 11:01:59;;;;;;;7.28;4.80;;;26.80;76.00;;;;;;4878985;29;20506;-84
2021/07/10 11:04:43;;;;;;;6.25;4.85;;;27.00;78.00;;;;;;4864443;29;20076;-85
2021/07/10 11:07:30;;;;;;;9.75;4.18;;;27.10;73.90;;;;;;4864393;29;20053;-84
2021/07/10 11:10:02;;;;;;;6.90;4.95;;;27.10;73.10;;;;;;4878677;29;20104;-85
2021/07/10 11:12:46;;;;;;;5.47;4.63;;;27.10;74.00;;;;;;4863674;29;20042;-84
2021/07/10 11:15:34;;;;;;;6.10;3.97;;;27.20;73.10;;;;;;4863938;29;20073;-84
2021/07/10 11:18:01;;;;;;;4.28;3.72;;;27.20;73.40;;;;;;4863259;29;20053;-85
2021/07/10 11:20:42;;;;;;;7.82;4.72;;;27.20;73.10;;;;;;4863813;29;20045;-85
2021/07/10 11:23:09;;;;;;;8.43;4.28;;;27.30;71.30;;;;;;4863330;29;20041;-85
2021/07/10 11:25:50;;;;;;;7.45;4.20;;;27.30;70.40;;;;;;4863588;29;20079;-85
2021/07/10 11:28:18;;;;;;;6.22;4.90;;;27.40;72.80;;;;;;4864138;29;20056;-84
2021/07/10 11:30:45;;;;;;;8.13;5.10;;;27.40;74.30;;;;;;4878287;29;20042;-84
2021/07/10 11:33:11;;;;;;;6.88;4.32;;;27.40;70.10;;;;;;4863955;29;20105;-85
2021/07/10 11:35:36;;;;;;;5.03;3.50;;;27.50;70.20;;;;;;4864134;29;20137;-84
2021/07/10 11:38:03;;;;;;;5.90;4.97;;;27.40;70.20;;;;;;4863608;29;20116;-85
2021/07/10 11:40:40;;;;;;;4.72;3.83;;;27.60;69.80;;;;;;4863723;29;20045;-84
2021/07/10 11:43:08;;;;;;;5.40;3.85;;;27.70;70.60;;;;;;4878637;29;20081;-85
2021/07/10 11:45:36;;;;;;;5.93;4.22;;;27.80;69.80;;;;;;4863757;29;20041;-85
2021/07/10 11:48:22;;;;;;;4.55;4.10;;;27.80;69.30;;;;;;4863870;29;20048;-84
2021/07/10 11:50:56;;;;;;;6.88;4.13;;;27.50;69.40;;;;;;4878666;29;20069;-84
2021/07/10 11:53:22;;;;;;;6.45;3.60;;;27.30;71.10;;;;;;4878267;29;20366;-84
2021/07/10 11:55:48;;;;;;;6.30;4.15;;;27.30;68.80;;;;;;4862832;29;20394;-84
2021/07/10 11:58:16;;;;;;;7.65;3.80;;;27.10;69.10;;;;;;4862684;29;20106;-84
2021/07/10 12:00:43;;;;;;;6.47;3.95;;;27.00;68.40;;;;;;4878288;29;20049;-84
2021/07/10 12:03:23;;;;;;;4.68;4.18;;;27.10;70.20;;;;;;4863889;29;20048;-85
2021/07/10 12:05:50;;;;;;;8.68;4.80;;;27.30;68.00;;;;;;4878226;29;20449;-85
2021/07/10 12:08:18;;;;;;;5.50;4.72;;;27.30;70.20;;;;;;4878330;29;20038;-85
2021/07/10 12:10:45;;;;;;;5.40;4.18;;;27.40;73.50;;;;;;4863323;29;20072;-84
2021/07/10 12:13:12;;;;;;;5.32;3.78;;;27.50;73.80;;;;;;4878613;29;20053;-84
2021/07/10 12:15:41;;;;;;;4.65;4.05;;;27.70;69.70;;;;;;4878072;29;20045;-84
2021/07/10 12:18:09;;;;;;;4.15;3.60;;;27.80;69.00;;;;;;4863411;29;20038;-84
2021/07/10 12:20:42;;;;;;;5.38;3.25;;;27.60;68.20;;;;;;4863387;29;20041;-84
2021/07/10 12:23:14;;;;;;;5.50;4.07;;;27.50;69.60;;;;;;4863802;29;20052;-84
2021/07/10 12:25:59;;;;;;;5.75;3.65;;;27.40;67.20;;;;;;4862868;29;20380;-84
2021/07/10 12:28:31;;;;;;;4.18;3.45;;;27.20;69.70;;;;;;4879253;29;20037;-83
2021/07/10 12:30:58;;;;;;;5.40;3.28;;;27.10;70.70;;;;;;4866636;29;20050;-84
2021/07/10 12:33:35;;;;;;;5.22;3.50;;;27.00;70.50;;;;;;4881896;29;20135;-84
2021/07/10 12:36:08;;;;;;;9.90;4.10;;;26.90;69.60;;;;;;4881451;29;20085;-84
2021/07/10 12:38:35;;;;;;;4.93;3.60;;;26.80;69.50;;;;;;4881639;29;20037;-84
2021/07/10 12:41:28;;;;;;;4.10;3.65;;;26.70;71.40;;;;;;4881469;29;20309;-84